Time;durP1;ratioP1;P1;durP2;ratioP2;P2;SDS_P1;SDS_P2;PMS_P1;PMS_P2;Temp;Humidity;BMP_temperature;BMP_pressure;BME280_temperature;BME280_humidity;BME280_pressure;Samples;Min_cycle;Max_cycle;Signal;HPM_P1;HPM_P2
2022/05/06 00:01:33;;;;;;;2.10;2.00;;;22.10;56.10;;;;;;5032871;28;20569;-63
2022/05/06 00:04:00;;;;;;;2.30;2.20;;;22.10;56.10;;;;;;5032801;28;20532;-61
2022/05/06 00:06:29;;;;;;;1.57;1.57;;;22.10;56.10;;;;;;5031732;28;20449;-64
2022/05/06 00:08:56;;;;;;;1.70;1.70;;;22.10;56.20;;;;;;5032460;28;20472;-63
2022/05/06 00:11:23;;;;;;;2.07;1.97;;;22.10;56.10;;;;;;5032677;28;20450;-64
2022/05/06 00:13:52;;;;;;;2.10;2.00;;;22.10;56.10;;;;;;5032604;28;20456;-61
2022/05/06 00:16:19;;;;;;;1.50;1.50;;;22.10;56.10;;;;;;5032139;28;20506;-63
2022/05/06 00:18:46;;;;;;;2.13;1.83;;;22.00;56.10;;;;;;5031938;28;20523;-63
2022/05/06 00:21:13;;;;;;;2.20;2.10;;;22.00;56.10;;;;;;5032293;28;20449;-64
2022/05/06 00:23:41;;;;;;;2.03;1.93;;;22.00;56.10;;;;;;5032471;28;20449;-64
2022/05/06 00:26:08;;;;;;;1.97;1.87;;;22.00;56.10;;;;;;5032212;28;20453;-63
2022/05/06 00:28:35;;;;;;;1.90;1.80;;;22.00;56.10;;;;;;5031664;28;20473;-64
2022/05/06 00:31:02;;;;;;;2.17;2.07;;;22.00;56.10;;;;;;5032203;28;20477;-63
2022/05/06 00:33:29;;;;;;;1.77;1.70;;;22.00;56.10;;;;;;5032205;28;20476;-64
2022/05/06 00:35:57;;;;;;;1.73;1.67;;;22.00;56.10;;;;;;5032041;28;20445;-64
2022/05/06 00:38:25;;;;;;;2.23;2.13;;;22.00;56.10;;;;;;5031830;28;20472;-63
2022/05/06 00:40:53;;;;;;;1.70;1.60;;;22.00;56.10;;;;;;5032173;28;20445;-64
2022/05/06 00:43:21;;;;;;;2.13;2.03;;;22.00;56.10;;;;;;5031830;28;20456;-63
2022/05/06 00:45:52;;;;;;;2.10;2.10;;;22.00;56.10;;;;;;5031746;28;20977;-63
2022/05/06 00:48:20;;;;;;;2.03;1.93;;;22.00;56.10;;;;;;5031824;28;20531;-64
2022/05/06 00:50:47;;;;;;;2.27;2.17;;;22.00;56.10;;;;;;5031930;28;20481;-62
2022/05/06 00:53:15;;;;;;;2.40;2.30;;;22.00;56.10;;;;;;5031609;28;20809;-64
2022/05/06 00:55:43;;;;;;;2.00;1.90;;;22.00;56.10;;;;;;5031682;28;20449;-64
2022/05/06 00:58:11;;;;;;;2.43;2.33;;;22.00;56.10;;;;;;5031577;28;20467;-64
2022/05/06 01:00:38;;;;;;;2.20;2.10;;;22.00;56.10;;;;;;5031821;28;20445;-65
2022/05/06 01:03:05;;;;;;;2.30;2.20;;;22.00;56.10;;;;;;5031905;28;20452;-64
2022/05/06 01:05:32;;;;;;;2.03;1.93;;;22.00;56.10;;;;;;5031515;28;20449;-63
2022/05/06 01:07:59;;;;;;;1.97;1.87;;;22.00;56.10;;;;;;5031367;28;20465;-64
2022/05/06 01:10:26;;;;;;;2.20;2.10;;;21.90;56.00;;;;;;5031591;28;20481;-64
2022/05/06 01:12:53;;;;;;;1.90;1.80;;;22.00;56.10;;;;;;5031696;28;20811;-65
2022/05/06 01:15:22;;;;;;;2.60;2.47;;;21.90;56.00;;;;;;5031407;28;20445;-64
2022/05/06 01:17:50;;;;;;;1.97;1.87;;;21.90;56.00;;;;;;5031204;28;20461;-64
2022/05/06 01:20:18;;;;;;;2.20;2.10;;;21.90;56.00;;;;;;5031666;28;20437;-65
2022/05/06 01:22:48;;;;;;;2.13;1.70;;;21.90;56.10;;;;;;5031625;28;20832;-64
2022/05/06 01:25:16;;;;;;;1.80;1.70;;;21.90;56.10;;;;;;5031356;28;20810;-63
2022/05/06 01:27:47;;;;;;;2.60;2.40;;;21.90;56.10;;;;;;5031105;28;20477;-64
2022/05/06 01:30:23;;;;;;;1.73;1.67;;;21.90;56.10;;;;;;5031905;28;20994;-64
2022/05/06 01:32:51;;;;;;;2.27;2.07;;;21.80;56.10;;;;;;5035743;28;20452;-63
2022/05/06 01:35:20;;;;;;;2.03;1.93;;;21.80;56.20;;;;;;5035169;28;20469;-62
2022/05/06 01:37:50;;;;;;;1.63;1.60;;;21.80;56.30;;;;;;5035253;28;20816;-64
2022/05/06 01:40:21;;;;;;;1.90;1.80;;;21.80;56.30;;;;;;5035620;28;20453;-64
2022/05/06 01:42:51;;;;;;;1.90;1.80;;;21.80;56.30;;;;;;5035458;28;20440;-65
2022/05/06 01:45:22;;;;;;;1.90;1.80;;;21.80;56.30;;;;;;5035190;28;20803;-64
2022/05/06 01:47:52;;;;;;;2.20;2.10;;;21.80;56.60;;;;;;5035065;28;20460;-64
2022/05/06 01:50:21;;;;;;;2.00;1.90;;;21.80;56.20;;;;;;5035138;28;20492;-64
2022/05/06 01:52:51;;;;;;;1.87;1.77;;;21.80;56.20;;;;;;5035293;28;20502;-63
2022/05/06 01:55:18;;;;;;;2.00;1.90;;;21.90;56.20;;;;;;5034956;28;20452;-62
2022/05/06 01:57:45;;;;;;;2.10;2.00;;;21.90;56.10;;;;;;5034849;28;20971;-64
2022/05/06 02:00:13;;;;;;;2.27;2.07;;;21.90;56.10;;;;;;5035089;28;20503;-64
2022/05/06 02:02:40;;;;;;;2.10;2.00;;;21.90;56.10;;;;;;5034803;28;20507;-63
2022/05/06 02:05:19;;;;;;;2.40;2.30;;;21.90;56.10;;;;;;5035005;28;20448;-64
2022/05/06 02:07:46;;;;;;;2.10;2.00;;;21.90;56.10;;;;;;5034843;28;20452;-63
2022/05/06 02:10:15;;;;;;;2.10;2.00;;;21.90;56.10;;;;;;5034765;28;21044;-64
2022/05/06 02:12:41;;;;;;;2.30;2.20;;;21.80;56.00;;;;;;5034553;28;20449;-63
2022/05/06 02:15:10;;;;;;;2.43;2.33;;;21.90;56.00;;;;;;5034972;28;20452;-64
2022/05/06 02:17:39;;;;;;;1.97;1.80;;;21.90;56.00;;;;;;5034550;28;20989;-61
2022/05/06 02:20:07;;;;;;;2.40;2.30;;;21.80;56.00;;;;;;5034710;28;20441;-64
2022/05/06 02:22:34;;;;;;;2.27;2.17;;;21.80;55.90;;;;;;5034450;28;20452;-64
2022/05/06 02:25:01;;;;;;;1.73;1.73;;;21.80;55.90;;;;;;5034663;28;20465;-64
2022/05/06 02:27:29;;;;;;;2.30;2.17;;;21.80;55.90;;;;;;5034248;28;20822;-64
2022/05/06 02:35:25;;;;;;;2.03;1.93;;;21.80;55.90;;;;;;5034620;28;21100;-64
2022/05/06 02:37:52;;;;;;;2.03;2.00;;;21.80;55.90;;;;;;5034193;28;20483;-64
2022/05/06 02:40:19;;;;;;;1.73;1.63;;;21.80;55.90;;;;;;5034387;28;20887;-64
2022/05/06 02:42:47;;;;;;;2.00;1.90;;;21.80;56.00;;;;;;5033387;28;20456;-65
2022/05/06 02:45:14;;;;;;;1.83;1.77;;;21.80;56.00;;;;;;5034406;28;20804;-65
2022/05/06 02:47:40;;;;;;;2.20;2.10;;;21.80;55.90;;;;;;5033977;28;20833;-64
2022/05/06 02:50:08;;;;;;;2.10;2.00;;;21.80;56.00;;;;;;5033888;28;20481;-64
2022/05/06 02:52:35;;;;;;;1.73;1.70;;;21.80;56.10;;;;;;5034121;28;20449;-64
2022/05/06 02:55:02;;;;;;;2.13;2.03;;;21.80;56.10;;;;;;5034293;28;20448;-61
2022/05/06 02:57:28;;;;;;;2.20;2.10;;;21.80;56.00;;;;;;5033821;28;21013;-63
2022/05/06 02:59:56;;;;;;;2.00;1.90;;;21.70;56.00;;;;;;5033760;28;20448;-64
2022/05/06 03:02:23;;;;;;;2.40;2.20;;;21.70;56.00;;;;;;5034005;28;20455;-63
2022/05/06 03:04:50;;;;;;;2.10;2.00;;;21.80;56.10;;;;;;5033978;28;20495;-64
2022/05/06 03:07:17;;;;;;;2.67;2.57;;;21.70;56.00;;;;;;5033454;28;20445;-64
2022/05/06 03:09:44;;;;;;;2.80;2.70;;;21.70;56.00;;;;;;5033615;28;20449;-64
2022/05/06 03:12:11;;;;;;;2.33;2.13;;;21.70;56.00;;;;;;5033703;28;20449;-64
2022/05/06 03:14:38;;;;;;;2.20;2.10;;;21.70;56.10;;;;;;5033829;28;20446;-64
2022/05/06 03:17:06;;;;;;;2.27;2.17;;;21.70;56.10;;;;;;5033582;28;20818;-65
2022/05/06 03:19:33;;;;;;;2.13;2.03;;;21.70;56.10;;;;;;5033557;28;20449;-64
2022/05/06 03:22:00;;;;;;;1.90;1.80;;;21.70;56.10;;;;;;5033478;28;20464;-64
2022/05/06 03:24:27;;;;;;;2.60;2.37;;;21.70;56.10;;;;;;5033550;28;20935;-62
2022/05/06 03:26:55;;;;;;;2.83;2.73;;;21.70;56.10;;;;;;5033385;28;20450;-64
2022/05/06 03:29:22;;;;;;;2.83;2.73;;;21.60;56.10;;;;;;5033264;28;20472;-65
2022/05/06 03:31:49;;;;;;;4.17;3.97;;;21.60;56.10;;;;;;5032220;28;20489;-63
2022/05/06 03:34:17;;;;;;;2.03;1.93;;;21.60;56.10;;;;;;5032826;28;20520;-64
2022/05/06 03:36:44;;;;;;;2.27;2.17;;;21.70;56.10;;;;;;5033254;28;20451;-64
2022/05/06 03:39:11;;;;;;;1.80;1.80;;;21.60;56.10;;;;;;5033152;28;20473;-64
2022/05/06 03:41:38;;;;;;;2.40;2.30;;;21.60;56.10;;;;;;5033031;28;20446;-63
2022/05/06 03:44:07;;;;;;;2.23;2.13;;;21.60;56.10;;;;;;5033273;28;20456;-64
2022/05/06 03:46:34;;;;;;;2.43;2.23;;;21.60;56.10;;;;;;5033008;28;20453;-63
2022/05/06 03:49:01;;;;;;;1.90;1.80;;;21.60;56.10;;;;;;5033030;28;20963;-62
2022/05/06 03:51:29;;;;;;;1.90;1.80;;;21.60;56.10;;;;;;5032730;28;20481;-65
2022/05/06 03:53:57;;;;;;;2.53;2.33;;;21.60;56.10;;;;;;5031963;28;20491;-63
2022/05/06 03:56:25;;;;;;;2.23;2.13;;;21.60;56.10;;;;;;5032879;28;20831;-64
2022/05/06 03:58:52;;;;;;;2.60;2.40;;;21.60;56.00;;;;;;5032782;28;20464;-64
2022/05/06 04:01:20;;;;;;;2.17;2.07;;;21.60;56.10;;;;;;5032599;28;20943;-64
2022/05/06 04:03:47;;;;;;;2.70;2.60;;;21.60;56.00;;;;;;5032899;28;20444;-64
2022/05/06 04:06:14;;;;;;;2.90;2.70;;;21.60;56.10;;;;;;5032759;28;21000;-65
2022/05/06 04:08:43;;;;;;;2.83;2.63;;;21.60;56.00;;;;;;5032080;28;20468;-64
2022/05/06 04:11:10;;;;;;;2.83;2.63;;;21.60;56.00;;;;;;5032590;28;20492;-64
2022/05/06 04:13:37;;;;;;;2.33;2.23;;;21.60;56.00;;;;;;5032591;28;20456;-65
2022/05/06 04:16:04;;;;;;;1.90;1.80;;;21.60;56.10;;;;;;5032554;28;20810;-64
2022/05/06 04:18:31;;;;;;;1.93;1.93;;;21.60;56.10;;;;;;5031948;28;20469;-64
